sensor_id;sensor_type;location;lat;lon;timestamp;pressure;altitude;pressure_sealevel;temperature;humidity
66398;BME280;54877;51.504;3.894;2023-04-26T00:00:16;102062.09;;;9.60;54.61
66398;BME280;54877;51.504;3.894;2023-04-26T00:02:42;102059.59;;;9.55;54.53
66398;BME280;54877;51.504;3.894;2023-04-26T00:05:10;102068.41;;;9.54;54.52
66398;BME280;54877;51.504;3.894;2023-04-26T00:07:36;102067.53;;;9.54;54.92
66398;BME280;54877;51.504;3.894;2023-04-26T00:10:04;102060.47;;;9.54;55.05
66398;BME280;54877;51.504;3.894;2023-04-26T00:12:31;102063.06;;;9.56;55.11
66398;BME280;54877;51.504;3.894;2023-04-26T00:14:56;102067.47;;;9.57;55.23
66398;BME280;54877;51.504;3.894;2023-04-26T00:17:22;102055.13;;;9.56;54.97
66398;BME280;54877;51.504;3.894;2023-04-26T00:19:48;102061.38;;;9.53;55.00
66398;BME280;54877;51.504;3.894;2023-04-26T00:22:15;102063.25;;;9.50;55.51
66398;BME280;54877;51.504;3.894;2023-04-26T00:24:40;102058.00;;;9.48;55.25
66398;BME280;54877;51.504;3.894;2023-04-26T00:27:07;102066.88;;;9.45;55.31
66398;BME280;54877;51.504;3.894;2023-04-26T00:29:34;102060.69;;;9.47;55.56
66398;BME280;54877;51.504;3.894;2023-04-26T00:31:59;102063.34;;;9.47;55.66
66398;BME280;54877;51.504;3.894;2023-04-26T00:34:30;102068.63;;;9.45;55.84
66398;BME280;54877;51.504;3.894;2023-04-26T00:36:57;102059.00;;;9.42;55.53
66398;BME280;54877;51.504;3.894;2023-04-26T00:39:22;102066.19;;;9.37;55.49
66398;BME280;54877;51.504;3.894;2023-04-26T00:41:48;102066.28;;;9.34;55.90
66398;BME280;54877;51.504;3.894;2023-04-26T00:44:13;102061.94;;;9.32;56.06
66398;BME280;54877;51.504;3.894;2023-04-26T00:46:39;102065.47;;;9.31;55.92
66398;BME280;54877;51.504;3.894;2023-04-26T00:49:05;102054.13;;;9.27;56.01
66398;BME280;54877;51.504;3.894;2023-04-26T00:51:30;102051.50;;;9.26;56.30
66398;BME280;54877;51.504;3.894;2023-04-26T00:53:56;102054.22;;;9.23;56.55
66398;BME280;54877;51.504;3.894;2023-04-26T00:56:23;102057.78;;;9.22;56.02
66398;BME280;54877;51.504;3.894;2023-04-26T00:58:49;102061.38;;;9.19;56.08
66398;BME280;54877;51.504;3.894;2023-04-26T01:01:15;102054.50;;;9.12;56.21
66398;BME280;54877;51.504;3.894;2023-04-26T01:03:40;102054.56;;;9.09;56.43
66398;BME280;54877;51.504;3.894;2023-04-26T01:06:08;102052.91;;;9.05;56.73
66398;BME280;54877;51.504;3.894;2023-04-26T01:08:33;102053.88;;;9.03;56.88
66398;BME280;54877;51.504;3.894;2023-04-26T01:10:58;102060.00;;;9.03;56.70
66398;BME280;54877;51.504;3.894;2023-04-26T01:13:24;102053.81;;;9.04;56.99
66398;BME280;54877;51.504;3.894;2023-04-26T01:15:50;102058.28;;;9.02;56.73
66398;BME280;54877;51.504;3.894;2023-04-26T01:18:16;102053.00;;;9.02;57.32
66398;BME280;54877;51.504;3.894;2023-04-26T01:20:41;102056.56;;;9.00;56.85
66398;BME280;54877;51.504;3.894;2023-04-26T01:23:07;102057.53;;;8.97;57.21
66398;BME280;54877;51.504;3.894;2023-04-26T01:25:33;102057.59;;;8.93;57.20
66398;BME280;54877;51.504;3.894;2023-04-26T01:27:59;102053.19;;;8.93;57.18
66398;BME280;54877;51.504;3.894;2023-04-26T01:30:25;102055.91;;;8.90;57.23
66398;BME280;54877;51.504;3.894;2023-04-26T01:32:50;102054.22;;;8.88;56.83
66398;BME280;54877;51.504;3.894;2023-04-26T01:35:15;102055.97;;;8.87;57.42
66398;BME280;54877;51.504;3.894;2023-04-26T01:37:41;102059.50;;;8.88;57.13
66398;BME280;54877;51.504;3.894;2023-04-26T01:40:07;102059.50;;;8.88;57.01
66398;BME280;54877;51.504;3.894;2023-04-26T01:42:33;102056.91;;;8.86;57.48
66398;BME280;54877;51.504;3.894;2023-04-26T01:44:59;102056.91;;;8.84;56.86
66398;BME280;54877;51.504;3.894;2023-04-26T01:47:24;102059.69;;;8.78;56.75
66398;BME280;54877;51.504;3.894;2023-04-26T01:49:50;102050.22;;;8.70;57.10
66398;BME280;54877;51.504;3.894;2023-04-26T01:52:16;102052.03;;;8.68;57.51
66398;BME280;54877;51.504;3.894;2023-04-26T01:54:41;102050.22;;;8.70;57.40
66398;BME280;54877;51.504;3.894;2023-04-26T01:57:06;102052.84;;;8.70;57.41
66398;BME280;54877;51.504;3.894;2023-04-26T01:59:32;102050.19;;;8.71;57.71
66398;BME280;54877;51.504;3.894;2023-04-26T02:01:57;102045.81;;;8.70;57.70
66398;BME280;54877;51.504;3.894;2023-04-26T02:04:23;102044.88;;;8.73;57.90
66398;BME280;54877;51.504;3.894;2023-04-26T02:06:49;102043.16;;;8.70;57.96
66398;BME280;54877;51.504;3.894;2023-04-26T02:09:15;102039.59;;;8.73;58.03
66398;BME280;54877;51.504;3.894;2023-04-26T02:11:40;102043.16;;;8.72;58.29
66398;BME280;54877;51.504;3.894;2023-04-26T02:14:05;102043.97;;;8.74;58.22
66398;BME280;54877;51.504;3.894;2023-04-26T02:16:31;102041.34;;;8.74;58.47
66398;BME280;54877;51.504;3.894;2023-04-26T02:18:56;102041.25;;;8.77;58.46
66398;BME280;54877;51.504;3.894;2023-04-26T02:21:23;102035.91;;;8.80;58.39
66398;BME280;54877;51.504;3.894;2023-04-26T02:23:49;102024.44;;;8.81;58.59
66398;BME280;54877;51.504;3.894;2023-04-26T02:26:14;102037.56;;;8.84;58.51
66398;BME280;54877;51.504;3.894;2023-04-26T02:28:40;102023.53;;;8.82;57.96
66398;BME280;54877;51.504;3.894;2023-04-26T02:31:06;102025.28;;;8.83;58.10
66398;BME280;54877;51.504;3.894;2023-04-26T02:33:31;102027.00;;;8.84;58.31
66398;BME280;54877;51.504;3.894;2023-04-26T02:35:57;102027.00;;;8.84;58.04
66398;BME280;54877;51.504;3.894;2023-04-26T02:38:23;102027.00;;;8.84;57.89
66398;BME280;54877;51.504;3.894;2023-04-26T02:40:56;102033.16;;;8.84;57.69
66398;BME280;54877;51.504;3.894;2023-04-26T02:43:22;102029.63;;;8.84;57.59
66398;BME280;54877;51.504;3.894;2023-04-26T02:45:47;102027.06;;;8.81;57.59
66398;BME280;54877;51.504;3.894;2023-04-26T02:48:13;102032.34;;;8.82;57.95
66398;BME280;54877;51.504;3.894;2023-04-26T02:50:38;102034.97;;;8.82;57.85
66398;BME280;54877;51.504;3.894;2023-04-26T02:53:03;102029.69;;;8.82;57.90
66398;BME280;54877;51.504;3.894;2023-04-26T02:55:29;102029.69;;;8.82;57.73
66398;BME280;54877;51.504;3.894;2023-04-26T02:57:54;102035.03;;;8.79;57.93
66398;BME280;54877;51.504;3.894;2023-04-26T03:00:20;102025.34;;;8.80;57.76
66398;BME280;54877;51.504;3.894;2023-04-26T03:02:46;102028.00;;;8.80;58.10
66398;BME280;54877;51.504;3.894;2023-04-26T03:05:11;102027.06;;;8.81;58.31
66398;BME280;54877;51.504;3.894;2023-04-26T03:07:37;102033.28;;;8.80;57.96
66398;BME280;54877;51.504;3.894;2023-04-26T03:10:02;102034.16;;;8.79;57.94
66398;BME280;54877;51.504;3.894;2023-04-26T03:12:29;102030.63;;;8.80;57.51
66398;BME280;54877;51.504;3.894;2023-04-26T03:14:54;102032.44;;;8.78;57.01
66398;BME280;54877;51.504;3.894;2023-04-26T03:17:20;102036.81;;;8.79;57.18
66398;BME280;54877;51.504;3.894;2023-04-26T03:19:45;102034.16;;;8.79;56.78
66398;BME280;54877;51.504;3.894;2023-04-26T03:22:11;102033.28;;;8.80;56.51
66398;BME280;54877;51.504;3.894;2023-04-26T03:24:40;102014.78;;;8.80;56.53
66398;BME280;54877;51.504;3.894;2023-04-26T03:27:06;102015.63;;;8.82;56.80
66398;BME280;54877;51.504;3.894;2023-04-26T03:29:32;102016.50;;;8.81;56.85
66398;BME280;54877;51.504;3.894;2023-04-26T03:31:57;102012.97;;;8.82;57.13
66398;BME280;54877;51.504;3.894;2023-04-26T03:34:22;102016.50;;;8.81;57.50
66398;BME280;54877;51.504;3.894;2023-04-26T03:36:51;102021.78;;;8.81;57.55
66398;BME280;54877;51.504;3.894;2023-04-26T03:39:17;102013.03;;;8.79;57.37
66398;BME280;54877;51.504;3.894;2023-04-26T03:41:42;102008.63;;;8.79;57.72
66398;BME280;54877;51.504;3.894;2023-04-26T03:44:07;102001.59;;;8.78;57.58
66398;BME280;54877;51.504;3.894;2023-04-26T03:46:33;102009.59;;;8.77;57.48
66398;BME280;54877;51.504;3.894;2023-04-26T03:48:58;102006.06;;;8.76;57.49
66398;BME280;54877;51.504;3.894;2023-04-26T03:51:23;102001.69;;;8.75;57.63
66398;BME280;54877;51.504;3.894;2023-04-26T03:53:49;102003.47;;;8.75;57.67
66398;BME280;54877;51.504;3.894;2023-04-26T03:56:15;101999.09;;;8.74;58.09
66398;BME280;54877;51.504;3.894;2023-04-26T03:58:41;102016.69;;;8.75;57.82
66398;BME280;54877;51.504;3.894;2023-04-26T04:01:06;102007.06;;;8.72;57.71
66398;BME280;54877;51.504;3.894;2023-04-26T04:03:32;102010.59;;;8.71;57.74
66398;BME280;54877;51.504;3.894;2023-04-26T04:05:57;102000.97;;;8.69;57.32
66398;BME280;54877;51.504;3.894;2023-04-26T04:08:23;102004.50;;;8.68;57.36
66398;BME280;54877;51.504;3.894;2023-04-26T04:10:48;102006.25;;;8.69;57.36
66398;BME280;54877;51.504;3.894;2023-04-26T04:13:14;101997.53;;;8.65;57.80
66398;BME280;54877;51.504;3.894;2023-04-26T04:15:39;102000.22;;;8.64;57.58
66398;BME280;54877;51.504;3.894;2023-04-26T04:18:04;101997.59;;;8.64;58.16
66398;BME280;54877;51.504;3.894;2023-04-26T04:20:30;101990.56;;;8.63;57.95
66398;BME280;54877;51.504;3.894;2023-04-26T04:22:55;101999.28;;;8.65;58.14
66398;BME280;54877;51.504;3.894;2023-04-26T04:25:22;102002.00;;;8.63;57.66
66398;BME280;54877;51.504;3.894;2023-04-26T04:27:49;101994.97;;;8.62;57.94
66398;BME280;54877;51.504;3.894;2023-04-26T04:30:15;102002.00;;;8.62;58.08
66398;BME280;54877;51.504;3.894;2023-04-26T04:32:41;102001.25;;;8.57;58.20
66398;BME280;54877;51.504;3.894;2023-04-26T04:35:10;101993.31;;;8.57;58.08
66398;BME280;54877;51.504;3.894;2023-04-26T04:37:36;102003.00;;;8.58;58.44
66398;BME280;54877;51.504;3.894;2023-04-26T04:40:03;102009.91;;;8.62;58.08
66398;BME280;54877;51.504;3.894;2023-04-26T04:42:28;102009.91;;;8.62;58.11
66398;BME280;54877;51.504;3.894;2023-04-26T04:44:54;102012.53;;;8.63;58.25
66398;BME280;54877;51.504;3.894;2023-04-26T04:47:20;102007.19;;;8.66;57.91
66398;BME280;54877;51.504;3.894;2023-04-26T04:49:45;101997.41;;;8.70;58.30
66398;BME280;54877;51.504;3.894;2023-04-26T04:52:11;101998.16;;;8.76;58.42
66398;BME280;54877;51.504;3.894;2023-04-26T04:54:36;102003.34;;;8.79;58.47
66398;BME280;54877;51.504;3.894;2023-04-26T04:57:02;102007.69;;;8.82;57.73
66398;BME280;54877;51.504;3.894;2023-04-26T04:59:27;102012.97;;;8.82;57.92
66398;BME280;54877;51.504;3.894;2023-04-26T05:01:53;102011.16;;;8.84;57.78
66398;BME280;54877;51.504;3.894;2023-04-26T05:04:19;102009.38;;;8.86;57.77
66398;BME280;54877;51.504;3.894;2023-04-26T05:06:44;102011.97;;;8.88;58.56
66398;BME280;54877;51.504;3.894;2023-04-26T05:09:09;102013.72;;;8.89;58.27
66398;BME280;54877;51.504;3.894;2023-04-26T05:11:35;102014.47;;;8.92;58.18
66398;BME280;54877;51.504;3.894;2023-04-26T05:14:00;102013.56;;;8.95;58.10
66398;BME280;54877;51.504;3.894;2023-04-26T05:16:26;102015.28;;;8.96;58.04
66398;BME280;54877;51.504;3.894;2023-04-26T05:18:51;102022.25;;;8.98;58.45
66398;BME280;54877;51.504;3.894;2023-04-26T05:21:17;102024.00;;;8.99;58.37
66398;BME280;54877;51.504;3.894;2023-04-26T05:23:43;102030.03;;;9.04;58.36
66398;BME280;54877;51.504;3.894;2023-04-26T05:26:14;102035.25;;;9.07;58.50
66398;BME280;54877;51.504;3.894;2023-04-26T05:28:40;102031.66;;;9.11;58.07
66398;BME280;54877;51.504;3.894;2023-04-26T05:31:07;102031.47;;;9.17;57.71
66398;BME280;54877;51.504;3.894;2023-04-26T05:33:33;102035.66;;;9.26;57.01
66398;BME280;54877;51.504;3.894;2023-04-26T05:35:58;102041.66;;;9.32;57.25
66398;BME280;54877;51.504;3.894;2023-04-26T05:38:25;102043.28;;;9.38;57.13
66398;BME280;54877;51.504;3.894;2023-04-26T05:40:51;102044.09;;;9.41;56.10
66398;BME280;54877;51.504;3.894;2023-04-26T05:43:16;102047.50;;;9.45;55.75
66398;BME280;54877;51.504;3.894;2023-04-26T05:45:49;102050.03;;;9.50;55.40
66398;BME280;54877;51.504;3.894;2023-04-26T05:48:15;102046.38;;;9.54;55.48
66398;BME280;54877;51.504;3.894;2023-04-26T05:50:41;102039.19;;;9.59;55.18
66398;BME280;54877;51.504;3.894;2023-04-26T05:53:06;102040.88;;;9.63;55.09
66398;BME280;54877;51.504;3.894;2023-04-26T05:55:32;102040.72;;;9.69;55.02
66398;BME280;54877;51.504;3.894;2023-04-26T05:57:57;102051.97;;;9.75;55.27
66398;BME280;54877;51.504;3.894;2023-04-26T06:00:23;102032.34;;;9.84;55.72
66398;BME280;54877;51.504;3.894;2023-04-26T06:02:48;102037.41;;;9.91;55.37
66398;BME280;54877;51.504;3.894;2023-04-26T06:05:14;102034.56;;;9.99;55.47
66398;BME280;54877;51.504;3.894;2023-04-26T06:07:39;102043.16;;;10.07;54.46
66398;BME280;54877;51.504;3.894;2023-04-26T06:10:05;102046.47;;;10.15;54.32
66398;BME280;54877;51.504;3.894;2023-04-26T06:12:31;102043.59;;;10.23;53.56
66398;BME280;54877;51.504;3.894;2023-04-26T06:14:57;102046.13;;;10.27;53.35
66398;BME280;54877;51.504;3.894;2023-04-26T06:17:22;102051.22;;;10.33;53.51
66398;BME280;54877;51.504;3.894;2023-04-26T06:19:47;102055.47;;;10.39;53.79
66398;BME280;54877;51.504;3.894;2023-04-26T06:22:12;102047.41;;;10.43;53.47
66398;BME280;54877;51.504;3.894;2023-04-26T06:24:38;102043.66;;;10.50;53.46
66398;BME280;54877;51.504;3.894;2023-04-26T06:27:03;102039.94;;;10.57;52.97
66398;BME280;54877;51.504;3.894;2023-04-26T06:29:31;102038.91;;;10.61;52.89
66398;BME280;54877;51.504;3.894;2023-04-26T06:31:57;102036.97;;;10.67;53.21
66398;BME280;54877;51.504;3.894;2023-04-26T06:34:22;102041.22;;;10.72;52.62
66398;BME280;54877;51.504;3.894;2023-04-26T06:36:48;102045.50;;;10.76;51.99
66398;BME280;54877;51.504;3.894;2023-04-26T06:39:13;102043.69;;;10.78;52.97
66398;BME280;54877;51.504;3.894;2023-04-26T06:41:39;102043.59;;;10.81;53.72
66398;BME280;54877;51.504;3.894;2023-04-26T06:44:04;102042.44;;;10.90;53.86
66398;BME280;54877;51.504;3.894;2023-04-26T06:46:30;102040.19;;;11.04;53.63
66398;BME280;54877;51.504;3.894;2023-04-26T06:48:55;102052.84;;;11.22;52.82
66398;BME280;54877;51.504;3.894;2023-04-26T06:51:20;102054.13;;;11.37;51.34
66398;BME280;54877;51.504;3.894;2023-04-26T06:53:46;102048.84;;;11.35;50.53
66398;BME280;54877;51.504;3.894;2023-04-26T06:56:12;102060.41;;;11.34;50.15
66398;BME280;54877;51.504;3.894;2023-04-26T06:58:38;102057.78;;;11.33;49.99
66398;BME280;54877;51.504;3.894;2023-04-26T07:01:03;102060.50;;;11.31;49.78
66398;BME280;54877;51.504;3.894;2023-04-26T07:03:30;102064.88;;;11.32;49.95
66398;BME280;54877;51.504;3.894;2023-04-26T07:05:56;102053.75;;;11.47;50.42
66398;BME280;54877;51.504;3.894;2023-04-26T07:08:21;102061.13;;;11.64;50.12
66398;BME280;54877;51.504;3.894;2023-04-26T07:10:46;102055.66;;;11.68;49.03
66398;BME280;54877;51.504;3.894;2023-04-26T07:13:12;102058.31;;;11.70;48.36
66398;BME280;54877;51.504;3.894;2023-04-26T07:15:37;102058.94;;;11.76;48.18
66398;BME280;54877;51.504;3.894;2023-04-26T07:18:02;102064.13;;;11.79;47.81
66398;BME280;54877;51.504;3.894;2023-04-26T07:20:28;102070.22;;;11.83;47.82
66398;BME280;54877;51.504;3.894;2023-04-26T07:22:53;102065.66;;;11.87;46.69
66398;BME280;54877;51.504;3.894;2023-04-26T07:25:19;102061.34;;;11.84;46.37
66398;BME280;54877;51.504;3.894;2023-04-26T07:27:44;102053.19;;;11.89;47.08
66398;BME280;54877;51.504;3.894;2023-04-26T07:30:10;102066.28;;;11.93;47.47
66398;BME280;54877;51.504;3.894;2023-04-26T07:32:35;102053.66;;;12.01;47.36
66398;BME280;54877;51.504;3.894;2023-04-26T07:35:05;102064.09;;;12.06;47.18
66398;BME280;54877;51.504;3.894;2023-04-26T07:37:31;102056.94;;;12.08;46.70
66398;BME280;54877;51.504;3.894;2023-04-26T07:39:57;102058.66;;;12.09;46.13
66398;BME280;54877;51.504;3.894;2023-04-26T07:42:22;102054.16;;;12.11;46.19
66398;BME280;54877;51.504;3.894;2023-04-26T07:44:47;102054.91;;;12.14;45.97
66398;BME280;54877;51.504;3.894;2023-04-26T07:47:13;102059.25;;;12.17;44.98
66398;BME280;54877;51.504;3.894;2023-04-26T07:49:39;102052.09;;;12.19;45.24
66398;BME280;54877;51.504;3.894;2023-04-26T07:52:05;102057.50;;;12.16;45.39
66398;BME280;54877;51.504;3.894;2023-04-26T07:54:31;102051.50;;;12.11;45.06
66398;BME280;54877;51.504;3.894;2023-04-26T07:56:57;102053.66;;;12.01;45.17
66398;BME280;54877;51.504;3.894;2023-04-26T07:59:22;102060.78;;;11.99;45.82
66398;BME280;54877;51.504;3.894;2023-04-26T08:01:48;102062.31;;;12.06;45.91
66398;BME280;54877;51.504;3.894;2023-04-26T08:04:14;102061.22;;;12.12;46.12
66398;BME280;54877;51.504;3.894;2023-04-26T08:06:39;102058.31;;;12.18;45.98
66398;BME280;54877;51.504;3.894;2023-04-26T08:09:08;102065.03;;;12.28;46.02
66398;BME280;54877;51.504;3.894;2023-04-26T08:11:35;102069.16;;;12.35;45.58
66398;BME280;54877;51.504;3.894;2023-04-26T08:14:00;102067.16;;;12.42;45.59
66398;BME280;54877;51.504;3.894;2023-04-26T08:16:26;102060.06;;;12.42;44.00
66398;BME280;54877;51.504;3.894;2023-04-26T08:18:51;102059.69;;;12.51;44.11
66398;BME280;54877;51.504;3.894;2023-04-26T08:21:16;102065.84;;;12.53;43.43
66398;BME280;54877;51.504;3.894;2023-04-26T08:23:41;102060.16;;;12.62;43.49
66398;BME280;54877;51.504;3.894;2023-04-26T08:26:07;102057.38;;;12.65;43.42
66398;BME280;54877;51.504;3.894;2023-04-26T08:28:32;102053.56;;;12.72;43.22
66398;BME280;54877;51.504;3.894;2023-04-26T08:30:57;102054.06;;;12.82;43.89
66398;BME280;54877;51.504;3.894;2023-04-26T08:33:23;102053.69;;;12.91;43.15
66398;BME280;54877;51.504;3.894;2023-04-26T08:35:48;102059.66;;;12.98;42.77
66398;BME280;54877;51.504;3.894;2023-04-26T08:38:13;102054.22;;;13.01;42.65
66398;BME280;54877;51.504;3.894;2023-04-26T08:40:39;102051.56;;;13.01;42.49
66398;BME280;54877;51.504;3.894;2023-04-26T08:43:07;102055.13;;;13.00;42.45
66398;BME280;54877;51.504;3.894;2023-04-26T08:45:35;102058.47;;;12.83;42.07
66398;BME280;54877;51.504;3.894;2023-04-26T08:48:05;102064.22;;;12.94;42.70
66398;BME280;54877;51.504;3.894;2023-04-26T08:50:35;102063.22;;;12.96;42.15
66398;BME280;54877;51.504;3.894;2023-04-26T08:53:03;102060.56;;;12.96;42.25
66398;BME280;54877;51.504;3.894;2023-04-26T08:55:29;102064.97;;;12.98;42.47
66398;BME280;54877;51.504;3.894;2023-04-26T08:57:57;102060.25;;;13.04;42.92
66398;BME280;54877;51.504;3.894;2023-04-26T09:00:24;102056.59;;;13.07;41.44
66398;BME280;54877;51.504;3.894;2023-04-26T09:02:50;102054.69;;;13.12;41.82
66398;BME280;54877;51.504;3.894;2023-04-26T09:05:19;102050.28;;;13.11;41.59
66398;BME280;54877;51.504;3.894;2023-04-26T09:07:48;102043.63;;;13.21;41.81
66398;BME280;54877;51.504;3.894;2023-04-26T09:10:18;102048.03;;;13.22;39.98
66398;BME280;54877;51.504;3.894;2023-04-26T09:12:54;102054.09;;;13.25;41.29
66398;BME280;54877;51.504;3.894;2023-04-26T09:15:21;102061.13;;;13.26;40.23
66398;BME280;54877;51.504;3.894;2023-04-26T09:17:47;102057.91;;;13.40;40.58
66398;BME280;54877;51.504;3.894;2023-04-26T09:22:44;102046.50;;;13.58;40.68
66398;BME280;54877;51.504;3.894;2023-04-26T09:25:10;102049.88;;;13.62;40.75
66398;BME280;54877;51.504;3.894;2023-04-26T09:27:40;102058.84;;;13.79;40.85
66398;BME280;54877;51.504;3.894;2023-04-26T09:30:16;102051.91;;;13.95;40.92
66398;BME280;54877;51.504;3.894;2023-04-26T09:35:49;102041.47;;;14.11;40.51
66398;BME280;54877;51.504;3.894;2023-04-26T09:38:11;102047.38;;;14.18;39.56
66398;BME280;54877;51.504;3.894;2023-04-26T09:40:45;102054.31;;;14.01;38.84
66398;BME280;54877;51.504;3.894;2023-04-26T09:43:14;102042.94;;;13.98;38.46
66398;BME280;54877;51.504;3.894;2023-04-26T09:48:19;102046.75;;;13.52;38.88
66398;BME280;54877;51.504;3.894;2023-04-26T09:50:55;102052.69;;;13.59;39.50
66398;BME280;54877;51.504;3.894;2023-04-26T09:56:07;102053.13;;;13.68;39.63
66398;BME280;54877;51.504;3.894;2023-04-26T09:58:35;102050.34;;;13.71;39.25
66398;BME280;54877;51.504;3.894;2023-04-26T10:01:02;102047.06;;;13.65;39.90
66398;BME280;54877;51.504;3.894;2023-04-26T10:03:29;102052.09;;;13.72;40.18
66398;BME280;54877;51.504;3.894;2023-04-26T10:05:56;102053.94;;;13.70;39.63
66398;BME280;54877;51.504;3.894;2023-04-26T10:08:21;102051.13;;;13.73;39.87
66398;BME280;54877;51.504;3.894;2023-04-26T10:10:47;102055.28;;;13.80;40.38
66398;BME280;54877;51.504;3.894;2023-04-26T10:13:14;102058.31;;;13.71;40.23
66398;BME280;54877;51.504;3.894;2023-04-26T10:15:40;102054.00;;;13.69;40.57
66398;BME280;54877;51.504;3.894;2023-04-26T10:18:06;102057.81;;;13.83;40.12
66398;BME280;54877;51.504;3.894;2023-04-26T10:20:32;102045.28;;;13.85;39.83
66398;BME280;54877;51.504;3.894;2023-04-26T10:23:03;102059.78;;;13.98;40.04
66398;BME280;54877;51.504;3.894;2023-04-26T10:25:37;102055.09;;;14.03;40.30
66398;BME280;54877;51.504;3.894;2023-04-26T10:28:03;102048.06;;;14.02;39.29
66398;BME280;54877;51.504;3.894;2023-04-26T10:30:29;102048.44;;;14.13;39.71
66398;BME280;54877;51.504;3.894;2023-04-26T10:35:28;102048.84;;;14.25;38.67
66398;BME280;54877;51.504;3.894;2023-04-26T10:45:37;102026.41;;;14.49;38.49
66398;BME280;54877;51.504;3.894;2023-04-26T10:58:48;102010.19;;;14.35;38.54
66398;BME280;54877;51.504;3.894;2023-04-26T11:01:16;102013.44;;;14.41;38.20
66398;BME280;54877;51.504;3.894;2023-04-26T11:03:44;102003.34;;;14.48;39.12
66398;BME280;54877;51.504;3.894;2023-04-26T11:06:51;102009.91;;;14.41;38.83
66398;BME280;54877;51.504;3.894;2023-04-26T11:12:03;102016.47;;;14.52;38.30
66398;BME280;54877;51.504;3.894;2023-04-26T11:14:35;102010.56;;;14.46;38.05
66398;BME280;54877;51.504;3.894;2023-04-26T11:17:04;102016.25;;;14.57;38.29
66398;BME280;54877;51.504;3.894;2023-04-26T11:19:31;102020.94;;;14.52;37.28
66398;BME280;54877;51.504;3.894;2023-04-26T11:21:57;102009.13;;;14.57;37.69
66398;BME280;54877;51.504;3.894;2023-04-26T11:24:25;102005.66;;;14.74;37.89
66398;BME280;54877;51.504;3.894;2023-04-26T11:26:51;102002.31;;;14.88;37.78
66398;BME280;54877;51.504;3.894;2023-04-26T11:29:17;102006.00;;;15.02;37.50
66398;BME280;54877;51.504;3.894;2023-04-26T11:31:49;102011.56;;;14.98;36.23
66398;BME280;54877;51.504;3.894;2023-04-26T11:34:15;102008.19;;;14.94;36.48
66398;BME280;54877;51.504;3.894;2023-04-26T11:36:40;102008.19;;;14.94;35.91
66398;BME280;54877;51.504;3.894;2023-04-26T11:39:08;102011.66;;;14.96;35.89
66398;BME280;54877;51.504;3.894;2023-04-26T11:41:34;102007.59;;;15.06;36.33
66398;BME280;54877;51.504;3.894;2023-04-26T11:43:59;102014.28;;;14.79;35.80
66398;BME280;54877;51.504;3.894;2023-04-26T11:46:24;102017.66;;;15.18;36.48
66398;BME280;54877;51.504;3.894;2023-04-26T11:48:50;102005.56;;;15.28;36.47
66398;BME280;54877;51.504;3.894;2023-04-26T11:51:16;101998.97;;;15.36;36.49
66398;BME280;54877;51.504;3.894;2023-04-26T11:53:42;102008.53;;;15.22;36.99
66398;BME280;54877;51.504;3.894;2023-04-26T11:58:52;102005.47;;;15.30;37.10
66398;BME280;54877;51.504;3.894;2023-04-26T12:03:48;102001.72;;;15.34;36.80
66398;BME280;54877;51.504;3.894;2023-04-26T12:06:14;102009.81;;;15.33;37.26
66398;BME280;54877;51.504;3.894;2023-04-26T12:08:39;102001.00;;;15.30;37.53
66398;BME280;54877;51.504;3.894;2023-04-26T12:11:05;102005.16;;;15.36;36.89
66398;BME280;54877;51.504;3.894;2023-04-26T12:13:30;102001.81;;;15.33;36.24
66398;BME280;54877;51.504;3.894;2023-04-26T12:15:57;102005.72;;;15.25;36.37
66398;BME280;54877;51.504;3.894;2023-04-26T12:18:28;102007.88;;;15.00;36.47
66398;BME280;54877;51.504;3.894;2023-04-26T12:20:56;102010.78;;;14.96;36.91
66398;BME280;54877;51.504;3.894;2023-04-26T12:23:23;102011.94;;;14.90;36.94
66398;BME280;54877;51.504;3.894;2023-04-26T12:25:57;102012.38;;;14.81;37.53
66398;BME280;54877;51.504;3.894;2023-04-26T12:28:26;102014.81;;;15.04;37.94
66398;BME280;54877;51.504;3.894;2023-04-26T12:30:51;102020.63;;;15.12;36.89
66398;BME280;54877;51.504;3.894;2023-04-26T12:33:16;102012.63;;;15.12;36.54
66398;BME280;54877;51.504;3.894;2023-04-26T12:35:46;102019.84;;;15.10;37.18
66398;BME280;54877;51.504;3.894;2023-04-26T12:38:12;102006.00;;;15.02;38.14
66398;BME280;54877;51.504;3.894;2023-04-26T12:40:37;102016.63;;;15.21;38.16
66398;BME280;54877;51.504;3.894;2023-04-26T12:43:03;102014.31;;;15.13;38.75
66398;BME280;54877;51.504;3.894;2023-04-26T12:45:29;102016.31;;;15.27;38.15
66398;BME280;54877;51.504;3.894;2023-04-26T12:47:54;102013.81;;;15.24;38.26
66398;BME280;54877;51.504;3.894;2023-04-26T12:50:20;102022.84;;;15.21;37.57
66398;BME280;54877;51.504;3.894;2023-04-26T12:52:46;102013.16;;;15.19;37.29
66398;BME280;54877;51.504;3.894;2023-04-26T12:55:13;102021.25;;;15.17;37.01
66398;BME280;54877;51.504;3.894;2023-04-26T12:57:40;102013.13;;;14.85;38.01
66398;BME280;54877;51.504;3.894;2023-04-26T13:00:11;102012.19;;;15.03;37.48
66398;BME280;54877;51.504;3.894;2023-04-26T13:02:38;102018.09;;;15.09;38.21
66398;BME280;54877;51.504;3.894;2023-04-26T13:05:04;102014.66;;;15.07;38.06
66398;BME280;54877;51.504;3.894;2023-04-26T13:07:33;102008.03;;;14.97;37.44
66398;BME280;54877;51.504;3.894;2023-04-26T13:10:00;102010.50;;;15.02;38.18
66398;BME280;54877;51.504;3.894;2023-04-26T13:12:27;102019.31;;;15.02;37.83
66398;BME280;54877;51.504;3.894;2023-04-26T13:14:53;102017.00;;;14.96;38.10
66398;BME280;54877;51.504;3.894;2023-04-26T13:17:19;102018.69;;;14.97;36.95
66398;BME280;54877;51.504;3.894;2023-04-26T13:19:44;102019.19;;;15.05;37.32
66398;BME280;54877;51.504;3.894;2023-04-26T13:22:10;102018.97;;;15.10;38.30
66398;BME280;54877;51.504;3.894;2023-04-26T13:24:36;102017.56;;;15.20;37.93
66398;BME280;54877;51.504;3.894;2023-04-26T13:27:02;102010.72;;;15.14;37.37
66398;BME280;54877;51.504;3.894;2023-04-26T13:29:28;102006.66;;;15.24;38.06